Strona główna
METAR-TAF:

METAR-TAF

Lotnisko :

Hagerstown, Maryland, Stany Zjednoczone

Szerokość geograficzna: 39-42-21N, Długość geograficzna: 077-43-48W, wysokość: 214 m

Aktualna obserwacja pogody

Raport powstał 1 godzina i 1 minut temu, godzina 07:53 UTC
Cisza
Temperatura 2°C
Wilgotność 87%
Ciśnienie 1006 hPa
Widzialność: 6.4 km
Przerywane chmury na wysokości 4200 ft
Zachmurzenie całkowite na wysokości 5000 ft
zamglenie

METAR: KHGR 190753Z AUTO 00000KT 4SM BR BKN042 OVC050 02/00 A2972 RMK AO2 SLP080 T00170000

czas: 03:54 (08:54 UTC)


TAF: brakujący

Obserwacja i prognoza pogody dla ponad 4000 lotnisk (raport METAR i TAF).

Dostępne stacje oznaczono żółtymi i czerwonymi punktami na mapie.

Najedź kursorem aby zobaczyć nazwę stacji.

Kliknij aby zobaczyć obserwacje i prognozy pogody.

Aby zmienić mapę: kliknij na zielony przycisk z czarnym krzyżykiem, aby powiększyć; na zielony przycisk z myślnikiem, aby pomniejszyć; na zielone strzałki, aby przejść do map sąsiednich.


METAR-TAF: